Time;durP1;ratioP1;P1;durP2;ratioP2;P2;SDS_P1;SDS_P2;PMS_P1;PMS_P2;Temp;Humidity;BMP_temperature;BMP_pressure;BME280_temperature;BME280_humidity;BME280_pressure;Samples;Min_cycle;Max_cycle;Signal;HPM_P1;HPM_P2
2021/12/01 00:00:29;;;;;;;1.60;1.50;;;;;;;;;;4981724;28;20260;-64
2021/12/01 00:02:55;;;;;;;2.00;1.80;;;;;;;;;;4982173;28;20260;-64
2021/12/01 00:05:24;;;;;;;1.80;1.70;;;;;;;;;;4983602;28;20236;-64
2021/12/01 00:07:50;;;;;;;1.70;1.60;;;;;;;;;;4988269;28;20225;-64
2021/12/01 00:10:19;;;;;;;1.90;1.70;;;;;;;;;;4987579;28;20244;-64
2021/12/01 00:12:45;;;;;;;2.33;1.50;;;;;;;;;;4979581;28;20249;-63
2021/12/01 00:15:11;;;;;;;1.70;1.60;;;;;;;;;;4985850;28;21021;-64
2021/12/01 00:17:37;;;;;;;1.90;1.80;;;;;;;;;;4970781;28;21495;-64
2021/12/01 00:20:07;;;;;;;1.70;1.60;;;;;;;;;;5006921;28;20866;-64
2021/12/01 00:22:35;;;;;;;1.80;1.70;;;;;;;;;;4999828;28;20221;-64
2021/12/01 00:25:01;;;;;;;1.97;1.80;;;;;;;;;;5005787;28;20229;-65
2021/12/01 00:27:29;;;;;;;3.70;1.60;;;;;;;;;;5009603;28;20235;-64
2021/12/01 00:30:03;;;;;;;3.03;1.60;;;;;;;;;;5002247;28;20247;-64
2021/12/01 00:32:29;;;;;;;3.40;1.60;;;;;;;;;;5007763;28;20264;-65
2021/12/01 00:35:02;;;;;;;1.90;1.47;;;;;;;;;;5004280;28;20323;-64
2021/12/01 00:37:28;;;;;;;1.67;1.57;;;;;;;;;;5004657;28;20237;-65
2021/12/01 00:39:54;;;;;;;1.50;1.40;;;;;;;;;;5004727;28;20399;-64
2021/12/01 00:42:20;;;;;;;1.90;1.70;;;;;;;;;;5004300;28;20352;-64
2021/12/01 00:44:53;;;;;;;2.23;1.80;;;;;;;;;;4974214;28;20273;-64
2021/12/01 00:47:23;;;;;;;1.80;1.70;;;;;;;;;;4983777;28;20715;-65
2021/12/01 00:49:49;;;;;;;1.80;1.60;;;;;;;;;;4981845;28;20645;-64
2021/12/01 00:52:17;;;;;;;1.80;1.70;;;;;;;;;;4981901;28;20252;-64
2021/12/01 00:54:43;;;;;;;4.00;2.00;;;;;;;;;;4980810;28;20234;-63
2021/12/01 00:57:09;;;;;;;1.97;1.87;;;;;;;;;;4983833;28;20717;-63
2021/12/01 00:59:37;;;;;;;2.53;2.10;;;;;;;;;;4983772;28;20233;-63
2021/12/01 01:02:06;;;;;;;2.00;1.90;;;;;;;;;;4976733;28;20228;-63
2021/12/01 01:04:32;;;;;;;2.83;2.00;;;;;;;;;;4979888;28;20803;-64
2021/12/01 01:06:58;;;;;;;2.67;1.87;;;;;;;;;;4976982;28;24635;-64
2021/12/01 01:09:30;;;;;;;2.20;2.00;;;;;;;;;;4974575;28;20249;-64
2021/12/01 01:17:38;;;;;;;3.37;2.43;;;;;;;;;;4982031;28;20233;-64
2021/12/01 01:20:11;;;;;;;2.33;2.00;;;;;;;;;;4977728;28;20366;-64
2021/12/01 01:22:40;;;;;;;4.43;2.30;;;;;;;;;;4982585;28;20741;-64
2021/12/01 01:25:06;;;;;;;3.27;2.27;;;;;;;;;;4987305;28;20228;-64
2021/12/01 01:27:34;;;;;;;2.17;2.07;;;;;;;;;;4978859;28;20792;-64
2021/12/01 01:30:03;;;;;;;2.73;2.17;;;;;;;;;;4978610;28;20597;-64
2021/12/01 01:32:32;;;;;;;1.90;1.80;;;;;;;;;;4981459;28;20395;-64
2021/12/01 01:35:15;;;;;;;2.20;2.00;;;;;;;;;;4972161;28;20222;-63
2021/12/01 01:37:44;;;;;;;2.10;1.90;;;;;;;;;;4986136;28;20237;-63
2021/12/01 01:40:15;;;;;;;2.30;2.10;;;;;;;;;;4981180;28;20230;-63
2021/12/01 01:42:41;;;;;;;2.63;2.27;;;;;;;;;;4984165;28;20245;-63
2021/12/01 01:45:10;;;;;;;2.63;2.27;;;;;;;;;;4982871;28;20735;-63
2021/12/01 01:47:36;;;;;;;2.33;2.13;;;;;;;;;;4979609;28;20795;-63
2021/12/01 01:52:34;;;;;;;2.73;2.20;;;;;;;;;;4983820;28;20241;-63
2021/12/01 01:55:00;;;;;;;2.73;2.50;;;;;;;;;;4985700;28;20241;-63
2021/12/01 01:57:26;;;;;;;2.60;2.40;;;;;;;;;;4980616;28;20658;-63
2021/12/01 01:59:54;;;;;;;2.90;2.33;;;;;;;;;;4985245;28;20225;-64
2021/12/01 02:02:26;;;;;;;2.50;2.30;;;;;;;;;;4979991;28;20734;-64
2021/12/01 02:04:52;;;;;;;2.80;2.60;;;;;;;;;;4986568;28;20244;-64
2021/12/01 02:07:18;;;;;;;3.47;2.50;;;;;;;;;;4985313;28;20237;-64
2021/12/01 02:09:44;;;;;;;3.10;2.87;;;;;;;;;;4980443;28;20252;-63
2021/12/01 02:12:16;;;;;;;3.00;2.80;;;;;;;;;;4985841;28;20248;-63
2021/12/01 02:14:46;;;;;;;2.80;2.60;;;;;;;;;;4976028;28;20237;-63
2021/12/01 02:17:12;;;;;;;3.17;2.87;;;;;;;;;;4983651;28;20229;-63
2021/12/01 02:19:41;;;;;;;3.60;2.93;;;;;;;;;;4985008;28;20237;-64
2021/12/01 02:22:07;;;;;;;3.00;2.80;;;;;;;;;;4982121;28;20718;-64
2021/12/01 02:24:36;;;;;;;3.30;3.00;;;;;;;;;;4980775;28;20282;-64
2021/12/01 02:27:04;;;;;;;3.83;3.53;;;;;;;;;;4980868;28;20670;-64
2021/12/01 02:29:41;;;;;;;3.60;3.30;;;;;;;;;;4987589;28;20229;-64
2021/12/01 02:32:07;;;;;;;4.20;3.23;;;;;;;;;;4984542;28;20335;-63
2021/12/01 02:34:38;;;;;;;3.60;3.17;;;;;;;;;;4981464;28;20233;-64
2021/12/01 02:37:05;;;;;;;3.53;3.17;;;;;;;;;;4987617;28;20241;-64
2021/12/01 02:39:35;;;;;;;3.97;3.57;;;;;;;;;;4983072;28;20654;-64
2021/12/01 02:42:06;;;;;;;3.80;3.50;;;;;;;;;;4984614;28;20783;-65
2021/12/01 02:44:32;;;;;;;3.33;3.03;;;;;;;;;;4992061;28;20240;-65
2021/12/01 02:47:01;;;;;;;3.70;3.40;;;;;;;;;;4987371;28;20240;-64
2021/12/01 02:49:34;;;;;;;3.83;3.50;;;;;;;;;;4985867;28;20774;-64
2021/12/01 02:52:00;;;;;;;3.77;3.43;;;;;;;;;;4982201;28;20337;-64
2021/12/01 02:54:26;;;;;;;3.77;3.47;;;;;;;;;;4979728;28;21350;-64
2021/12/01 02:56:53;;;;;;;4.60;4.10;;;;;;;;;;4986540;28;20643;-63
2021/12/01 02:59:19;;;;;;;4.53;4.13;;;;;;;;;;4987769;28;21071;-64
2021/12/01 03:01:45;;;;;;;4.70;4.20;;;;;;;;;;4968113;28;20292;-64
2021/12/01 03:04:11;;;;;;;4.80;4.33;;;;;;;;;;4981189;28;20895;-64
2021/12/01 03:06:37;;;;;;;4.47;4.07;;;;;;;;;;4988707;28;20599;-63
2021/12/01 03:09:06;;;;;;;4.87;4.30;;;;;;;;;;4981118;28;20237;-63
2021/12/01 03:11:32;;;;;;;4.90;4.40;;;;;;;;;;4996959;28;20257;-63
2021/12/01 03:14:00;;;;;;;5.57;3.80;;;;;;;;;;4986285;28;20699;-63
2021/12/01 03:16:26;;;;;;;4.63;4.23;;;;;;;;;;4985974;28;20229;-63
2021/12/01 03:18:52;;;;;;;4.80;4.30;;;;;;;;;;4992448;28;20763;-64
2021/12/01 03:21:19;;;;;;;5.20;4.50;;;;;;;;;;4988829;28;20263;-63
2021/12/01 03:23:45;;;;;;;6.43;4.77;;;;;;;;;;4981739;28;20241;-64
2021/12/01 03:26:13;;;;;;;4.93;4.43;;;;;;;;;;4969536;28;20236;-64
2021/12/01 03:28:39;;;;;;;5.20;4.70;;;;;;;;;;4980724;28;20295;-63
2021/12/01 03:31:08;;;;;;;5.47;4.77;;;;;;;;;;4984312;28;20785;-63
2021/12/01 03:33:37;;;;;;;4.73;4.33;;;;;;;;;;4983015;28;20241;-63
2021/12/01 03:36:05;;;;;;;6.37;5.00;;;;;;;;;;4984453;28;20230;-63
2021/12/01 03:38:31;;;;;;;5.17;4.67;;;;;;;;;;4982962;28;20241;-64
2021/12/01 03:40:57;;;;;;;5.53;5.03;;;;;;;;;;4985326;28;20237;-64
2021/12/01 03:43:28;;;;;;;5.70;5.10;;;;;;;;;;4982709;28;20237;-64
2021/12/01 03:45:56;;;;;;;5.50;5.00;;;;;;;;;;4991095;28;20233;-64
2021/12/01 03:48:27;;;;;;;7.27;5.03;;;;;;;;;;4989434;28;20229;-64
2021/12/01 03:50:56;;;;;;;6.63;5.10;;;;;;;;;;4982598;28;20229;-63
2021/12/01 03:53:22;;;;;;;5.70;5.03;;;;;;;;;;4985724;28;20234;-63
2021/12/01 03:55:48;;;;;;;5.90;5.30;;;;;;;;;;4976354;28;20320;-64
2021/12/01 03:58:14;;;;;;;5.87;5.30;;;;;;;;;;4984525;28;20230;-64
2021/12/01 04:00:40;;;;;;;5.90;5.30;;;;;;;;;;4985337;28;20328;-64
2021/12/01 04:03:08;;;;;;;7.63;5.13;;;;;;;;;;4983430;28;20679;-63
2021/12/01 04:05:37;;;;;;;5.70;5.20;;;;;;;;;;4987987;28;20253;-62
2021/12/01 04:08:06;;;;;;;10.37;5.20;;;;;;;;;;4990909;28;20244;-63
2021/12/01 04:10:32;;;;;;;5.50;5.00;;;;;;;;;;4984720;28;20260;-63
2021/12/01 04:13:06;;;;;;;5.97;5.47;;;;;;;;;;4986608;28;20727;-63
2021/12/01 04:15:34;;;;;;;5.47;4.87;;;;;;;;;;4986000;28;20295;-64
2021/12/01 04:18:00;;;;;;;5.80;5.20;;;;;;;;;;4983007;28;20265;-64
2021/12/01 04:20:26;;;;;;;5.53;4.77;;;;;;;;;;4988256;28;20265;-64
2021/12/01 04:22:55;;;;;;;5.20;4.70;;;;;;;;;;4988018;28;20234;-64
2021/12/01 04:25:21;;;;;;;7.73;4.97;;;;;;;;;;4986221;28;20840;-63
2021/12/01 04:27:49;;;;;;;5.60;4.97;;;;;;;;;;4984664;28;20311;-63
2021/12/01 04:30:16;;;;;;;5.40;4.90;;;;;;;;;;4980322;28;20241;-64
2021/12/01 04:32:44;;;;;;;6.77;5.10;;;;;;;;;;4986470;28;20226;-63
2021/12/01 04:35:10;;;;;;;5.27;4.80;;;;;;;;;;4982609;28;20284;-63
2021/12/01 04:37:37;;;;;;;6.60;4.37;;;;;;;;;;4988429;28;20238;-63
2021/12/01 04:40:05;;;;;;;7.97;4.60;;;;;;;;;;4988109;28;20230;-64
2021/12/01 04:42:31;;;;;;;6.20;4.50;;;;;;;;;;4989153;28;21213;-64
2021/12/01 04:44:57;;;;;;;5.73;4.47;;;;;;;;;;4973509;28;20638;-63
2021/12/01 04:47:28;;;;;;;4.90;4.40;;;;;;;;;;4986081;28;20236;-64
2021/12/01 04:49:54;;;;;;;6.10;3.87;;;;;;;;;;4981340;28;20230;-64
2021/12/01 04:52:23;;;;;;;5.53;3.67;;;;;;;;;;4984748;28;20612;-64
2021/12/01 04:54:48;;;;;;;4.27;3.63;;;;;;;;;;4984932;28;20241;-64
2021/12/01 04:57:17;;;;;;;4.23;3.83;;;;;;;;;;4986830;28;20237;-64
2021/12/01 04:59:45;;;;;;;4.00;3.60;;;;;;;;;;4984030;28;20229;-64
2021/12/01 05:02:11;;;;;;;3.67;3.33;;;;;;;;;;4986846;28;20634;-64
2021/12/01 05:04:41;;;;;;;4.13;3.30;;;;;;;;;;4983985;28;20237;-64
2021/12/01 05:07:08;;;;;;;6.63;3.57;;;;;;;;;;4987845;28;20229;-64
2021/12/01 05:09:38;;;;;;;4.27;3.10;;;;;;;;;;4982270;28;20248;-64
2021/12/01 05:12:09;;;;;;;5.07;3.23;;;;;;;;;;4984363;28;20233;-64
2021/12/01 05:14:43;;;;;;;3.40;3.10;;;;;;;;;;4980352;28;20233;-64
2021/12/01 05:17:11;;;;;;;3.40;3.00;;;;;;;;;;4983159;28;20371;-64
2021/12/01 05:19:37;;;;;;;2.93;2.73;;;;;;;;;;4978058;28;20324;-64
2021/12/01 05:22:03;;;;;;;2.90;2.60;;;;;;;;;;4985195;28;20545;-64
2021/12/01 05:24:32;;;;;;;3.13;2.60;;;;;;;;;;4979800;28;20633;-64
2021/12/01 05:27:01;;;;;;;3.70;2.77;;;;;;;;;;4973413;28;20339;-64
2021/12/01 05:29:29;;;;;;;2.70;2.50;;;;;;;;;;4978018;28;20256;-64
2021/12/01 05:31:58;;;;;;;2.47;2.27;;;;;;;;;;4991323;28;20644;-65
2021/12/01 05:34:24;;;;;;;2.53;2.33;;;;;;;;;;4974946;28;20264;-63
2021/12/01 05:36:54;;;;;;;1.97;1.87;;;;;;;;;;4979731;28;20292;-63
2021/12/01 05:39:23;;;;;;;2.20;2.00;;;;;;;;;;4983929;28;20695;-63
2021/12/01 05:41:52;;;;;;;3.00;2.70;;;;;;;;;;4965585;28;20240;-64
2021/12/01 05:44:22;;;;;;;3.87;3.10;;;;;;;;;;4981198;28;20229;-65
2021/12/01 05:46:50;;;;;;;5.17;3.40;;;;;;;;;;4963745;28;20248;-64
2021/12/01 05:49:16;;;;;;;3.30;3.00;;;;;;;;;;4979568;28;20722;-65
2021/12/01 05:51:43;;;;;;;4.47;3.20;;;;;;;;;;4970840;28;20259;-65
2021/12/01 05:54:15;;;;;;;4.67;3.33;;;;;;;;;;4958666;28;20341;-64
2021/12/01 05:56:41;;;;;;;4.83;2.93;;;;;;;;;;4976347;28;20229;-63
2021/12/01 05:59:07;;;;;;;5.63;2.87;;;;;;;;;;4988492;28;20590;-63
2021/12/01 06:01:33;;;;;;;3.40;2.93;;;;;;;;;;4960997;28;20295;-65
2021/12/01 06:04:01;;;;;;;4.50;3.30;;;;;;;;;;4977046;28;20253;-66
2021/12/01 06:06:30;;;;;;;3.80;2.63;;;;;;;;;;4979706;28;20770;-63
2021/12/01 06:08:56;;;;;;;3.27;2.97;;;;;;;;;;4980093;28;20343;-65
2021/12/01 06:11:24;;;;;;;3.83;2.70;;;;;;;;;;4979733;28;20302;-64
2021/12/01 06:13:52;;;;;;;3.60;3.30;;;;;;;;;;4967199;28;20233;-68
2021/12/01 06:16:24;;;;;;;4.07;3.67;;;;;;;;;;4959679;28;20300;-65
2021/12/01 06:18:50;;;;;;;3.83;3.40;;;;;;;;;;4962939;28;20241;-66
2021/12/01 06:21:16;;;;;;;3.70;3.40;;;;;;;;;;4979987;28;20295;-66
2021/12/01 06:23:42;;;;;;;3.57;3.20;;;;;;;;;;4982805;28;20338;-64
2021/12/01 06:26:08;;;;;;;3.40;3.10;;;;;;;;;;4980306;28;20719;-66
2021/12/01 06:28:34;;;;;;;3.73;3.30;;;;;;;;;;4988615;28;20723;-66
2021/12/01 06:31:00;;;;;;;4.50;3.37;;;;;;;;;;4989657;28;20595;-65
2021/12/01 06:33:26;;;;;;;3.50;3.20;;;;;;;;;;4984511;28;20236;-64
2021/12/01 06:35:52;;;;;;;3.87;3.00;;;;;;;;;;4983090;28;20319;-65
2021/12/01 06:38:18;;;;;;;4.97;3.00;;;;;;;;;;4981342;28;20280;-65
2021/12/01 06:40:44;;;;;;;3.60;2.70;;;;;;;;;;4987255;28;20696;-65
2021/12/01 06:43:10;;;;;;;3.67;2.70;;;;;;;;;;4977715;28;21814;-65
2021/12/01 06:45:38;;;;;;;3.43;2.60;;;;;;;;;;4960175;28;20236;-64
2021/12/01 06:48:07;;;;;;;3.07;2.37;;;;;;;;;;4985320;28;20251;-65
2021/12/01 06:50:33;;;;;;;3.63;2.77;;;;;;;;;;4990233;28;20237;-64
2021/12/01 06:52:59;;;;;;;2.40;2.20;;;;;;;;;;4975380;28;20244;-65
2021/12/01 06:55:31;;;;;;;2.83;2.10;;;;;;;;;;4984679;28;20417;-65
2021/12/01 06:57:57;;;;;;;2.37;2.17;;;;;;;;;;4984722;28;20237;-65
2021/12/01 07:00:25;;;;;;;6.33;2.10;;;;;;;;;;4982129;28;20275;-65
2021/12/01 07:02:51;;;;;;;2.73;1.87;;;;;;;;;;4965641;28;20225;-65
2021/12/01 07:05:17;;;;;;;3.50;1.93;;;;;;;;;;4981510;28;21937;-64
2021/12/01 07:07:48;;;;;;;2.47;1.60;;;;;;;;;;4984096;28;20246;-65
2021/12/01 07:10:24;;;;;;;1.63;1.50;;;;;;;;;;4983848;28;20947;-66
2021/12/01 07:12:57;;;;;;;1.50;1.40;;;;;;;;;;4981816;28;20256;-65
2021/12/01 07:15:26;;;;;;;1.50;1.40;;;;;;;;;;4974844;28;20225;-64
2021/12/01 07:17:51;;;;;;;1.40;1.30;;;;;;;;;;4986105;28;20346;-65
2021/12/01 07:20:20;;;;;;;1.70;1.60;;;;;;;;;;4990339;28;20699;-64
2021/12/01 07:22:46;;;;;;;2.17;1.30;;;;;;;;;;4983906;28;20236;-65
2021/12/01 07:25:14;;;;;;;2.37;1.20;;;;;;;;;;4991967;28;20745;-65
2021/12/01 07:27:40;;;;;;;1.67;1.43;;;;;;;;;;4985512;28;20291;-64
2021/12/01 07:30:06;;;;;;;1.37;1.27;;;;;;;;;;4983588;28;20248;-64
2021/12/01 07:32:37;;;;;;;2.13;1.20;;;;;;;;;;4982441;28;20788;-64
2021/12/01 07:35:03;;;;;;;1.63;1.43;;;;;;;;;;4988790;28;20233;-65
2021/12/01 07:37:29;;;;;;;1.33;1.23;;;;;;;;;;4984142;28;20342;-65
2021/12/01 07:39:55;;;;;;;1.47;1.37;;;;;;;;;;4980735;28;20234;-65
2021/12/01 07:42:21;;;;;;;1.50;1.40;;;;;;;;;;4988706;28;20244;-65
2021/12/01 07:44:50;;;;;;;1.80;1.43;;;;;;;;;;4989866;28;20401;-65
2021/12/01 07:47:16;;;;;;;1.50;1.40;;;;;;;;;;4967249;28;20237;-64
2021/12/01 07:49:42;;;;;;;1.83;1.70;;;;;;;;;;4978314;28;20237;-64
2021/12/01 07:52:08;;;;;;;2.13;1.70;;;;;;;;;;4982106;28;20229;-65
2021/12/01 07:54:39;;;;;;;1.50;1.40;;;;;;;;;;4983271;28;20242;-64
2021/12/01 07:57:05;;;;;;;1.70;1.60;;;;;;;;;;4987576;28;20233;-66
2021/12/01 07:59:31;;;;;;;1.50;1.40;;;;;;;;;;4982370;28;20264;-66
2021/12/01 08:01:57;;;;;;;1.50;1.40;;;;;;;;;;4982377;28;20260;-65
2021/12/01 08:04:25;;;;;;;2.13;1.50;;;;;;;;;;4984348;28;20716;-64
2021/12/01 08:06:52;;;;;;;1.20;1.10;;;;;;;;;;4982256;28;20229;-66
2021/12/01 08:09:18;;;;;;;1.17;1.17;;;;;;;;;;4974772;28;20850;-65
2021/12/01 08:11:44;;;;;;;1.93;1.20;;;;;;;;;;4982227;28;20677;-63
2021/12/01 08:14:15;;;;;;;1.20;1.20;;;;;;;;;;4986800;28;20233;-64
2021/12/01 08:16:43;;;;;;;2.90;1.30;;;;;;;;;;4985108;28;20679;-65
2021/12/01 08:19:09;;;;;;;1.20;1.10;;;;;;;;;;4985550;28;20237;-65
2021/12/01 08:21:35;;;;;;;1.93;1.20;;;;;;;;;;4986037;28;20547;-65
2021/12/01 08:24:04;;;;;;;1.93;1.20;;;;;;;;;;4982840;28;20248;-65
2021/12/01 08:26:30;;;;;;;1.20;1.10;;;;;;;;;;4984049;28;20229;-64
2021/12/01 08:28:56;;;;;;;1.20;1.10;;;;;;;;;;4982234;28;20233;-64
2021/12/01 08:31:22;;;;;;;1.20;1.10;;;;;;;;;;4985104;28;20230;-64
2021/12/01 08:33:48;;;;;;;1.00;0.90;;;;;;;;;;4972322;28;20237;-63
2021/12/01 08:36:14;;;;;;;2.73;1.10;;;;;;;;;;4988661;28;20233;-64
2021/12/01 08:38:40;;;;;;;3.10;1.20;;;;;;;;;;4955482;28;20229;-64
2021/12/01 08:41:09;;;;;;;0.80;0.80;;;;;;;;;;4981470;28;20598;-65
2021/12/01 08:43:42;;;;;;;1.77;1.20;;;;;;;;;;4985697;28;20229;-66
2021/12/01 08:46:08;;;;;;;1.53;1.10;;;;;;;;;;4984778;28;20233;-65
2021/12/01 08:48:34;;;;;;;1.90;1.30;;;;;;;;;;4994088;28;20232;-64
2021/12/01 08:51:11;;;;;;;1.27;1.17;;;;;;;;;;4999009;28;20590;-64
2021/12/01 08:53:37;;;;;;;1.60;1.50;;;;;;;;;;4999689;28;20252;-64
2021/12/01 08:56:09;;;;;;;1.37;1.27;;;;;;;;;;5005772;28;20694;-66
2021/12/01 08:58:40;;;;;;;1.40;1.30;;;;;;;;;;4992675;28;21847;-66
2021/12/01 09:01:09;;;;;;;1.00;1.00;;;;;;;;;;4999916;28;20236;-65
2021/12/01 09:03:36;;;;;;;1.00;1.00;;;;;;;;;;5002865;28;20375;-65
2021/12/01 09:06:02;;;;;;;1.00;1.00;;;;;;;;;;5001176;28;20259;-65
2021/12/01 09:08:31;;;;;;;1.00;1.00;;;;;;;;;;4992118;28;20229;-65
2021/12/01 09:11:00;;;;;;;1.30;1.10;;;;;;;;;;5000546;28;20233;-65
2021/12/01 09:13:28;;;;;;;0.97;0.97;;;;;;;;;;4998198;28;20232;-65
2021/12/01 09:15:55;;;;;;;1.07;0.97;;;;;;;;;;4999649;28;20235;-65
2021/12/01 09:18:21;;;;;;;1.40;1.23;;;;;;;;;;4993375;28;20237;-65
2021/12/01 09:20:50;;;;;;;2.80;1.00;;;;;;;;;;5000085;28;20239;-65
2021/12/01 09:23:18;;;;;;;1.93;1.10;;;;;;;;;;4994868;28;22448;-65
2021/12/01 09:25:44;;;;;;;1.20;1.10;;;;;;;;;;4998689;28;20232;-65
2021/12/01 09:28:13;;;;;;;1.00;0.90;;;;;;;;;;5001022;28;20314;-66
2021/12/01 09:30:39;;;;;;;1.00;0.90;;;;;;;;;;4982907;28;20236;-65
2021/12/01 09:33:05;;;;;;;1.23;1.00;;;;;;;;;;4995509;28;20257;-65
2021/12/01 09:35:31;;;;;;;0.87;0.80;;;;;;;;;;4998665;28;20294;-65
2021/12/01 09:37:57;;;;;;;1.00;0.90;;;;;;;;;;4999837;28;20233;-64
2021/12/01 09:40:23;;;;;;;0.80;0.80;;;;;;;;;;4997487;28;20328;-64
2021/12/01 09:42:54;;;;;;;0.70;0.70;;;;;;;;;;4997747;28;20706;-64
2021/12/01 09:45:23;;;;;;;0.80;0.80;;;;;;;;;;4984115;28;20488;-66
2021/12/01 09:47:52;;;;;;;1.30;0.90;;;;;;;;;;4984022;28;21098;-65
2021/12/01 09:50:18;;;;;;;1.77;1.00;;;;;;;;;;4979616;28;20608;-65
2021/12/01 09:52:47;;;;;;;1.20;1.20;;;;;;;;;;4990104;28;20236;-63
2021/12/01 09:55:14;;;;;;;1.20;1.20;;;;;;;;;;4978914;28;20241;-64
2021/12/01 09:58:12;;;;;;;1.23;1.13;;;;;;;;;;4971727;28;20839;-64
2021/12/01 10:00:42;;;;;;;1.53;1.20;;;;;;;;;;4957054;28;20837;-65
2021/12/01 10:03:11;;;;;;;1.37;1.27;;;;;;;;;;4983751;28;20473;-64
2021/12/01 10:05:51;;;;;;;1.10;1.10;;;;;;;;;;4963831;28;20387;-65
2021/12/01 10:08:26;;;;;;;1.30;1.20;;;;;;;;;;4979939;28;20340;-65
2021/12/01 10:10:54;;;;;;;1.20;1.20;;;;;;;;;;4985413;28;20244;-64
2021/12/01 10:13:26;;;;;;;0.93;0.93;;;;;;;;;;4983101;28;21537;-64
2021/12/01 10:15:55;;;;;;;1.27;1.13;;;;;;;;;;4961808;28;20822;-66
2021/12/01 10:18:21;;;;;;;0.90;0.90;;;;;;;;;;4981012;28;20236;-65
2021/12/01 10:20:56;;;;;;;0.70;0.70;;;;;;;;;;4962099;28;20240;-66
2021/12/01 10:23:25;;;;;;;0.97;0.90;;;;;;;;;;4984192;28;20233;-65
2021/12/01 10:25:51;;;;;;;1.57;1.47;;;;;;;;;;4985609;28;20728;-65
2021/12/01 10:28:34;;;;;;;1.30;1.20;;;;;;;;;;4965411;28;20260;-65
2021/12/01 10:31:00;;;;;;;2.20;1.20;;;;;;;;;;4978978;28;20263;-65
2021/12/01 10:33:28;;;;;;;1.20;1.10;;;;;;;;;;4983466;28;20233;-65
2021/12/01 10:35:54;;;;;;;0.90;0.90;;;;;;;;;;4967875;28;20811;-64
2021/12/01 10:38:29;;;;;;;0.90;0.90;;;;;;;;;;4982009;28;20225;-65
2021/12/01 10:41:01;;;;;;;1.00;1.00;;;;;;;;;;4985479;28;20224;-65
2021/12/01 10:43:45;;;;;;;1.70;0.80;;;;;;;;;;4971452;28;20456;-64
2021/12/01 10:46:12;;;;;;;0.90;0.90;;;;;;;;;;4983520;28;20739;-66
2021/12/01 10:48:40;;;;;;;1.77;0.90;;;;;;;;;;4979410;28;20225;-65
2021/12/01 10:51:08;;;;;;;0.93;0.93;;;;;;;;;;4983547;28;20284;-65
2021/12/01 10:53:34;;;;;;;0.70;0.70;;;;;;;;;;4979650;28;20240;-65
2021/12/01 10:56:01;;;;;;;0.93;0.93;;;;;;;;;;4983805;28;20226;-65
2021/12/01 10:58:46;;;;;;;0.80;0.80;;;;;;;;;;4988057;28;20661;-65
2021/12/01 11:01:27;;;;;;;1.00;0.90;;;;;;;;;;4986835;28;20517;-65
2021/12/01 11:03:55;;;;;;;0.70;0.70;;;;;;;;;;4990667;28;20935;-65
2021/12/01 11:06:25;;;;;;;0.73;0.73;;;;;;;;;;4986431;28;20237;-64
2021/12/01 11:09:01;;;;;;;1.00;1.00;;;;;;;;;;4988932;28;20621;-65
2021/12/01 11:11:45;;;;;;;0.90;0.90;;;;;;;;;;4992237;28;20229;-65
2021/12/01 11:14:18;;;;;;;0.93;0.93;;;;;;;;;;4984173;28;20256;-65
2021/12/01 11:16:45;;;;;;;1.30;1.20;;;;;;;;;;4988302;28;20774;-65
2021/12/01 11:19:11;;;;;;;1.20;1.10;;;;;;;;;;4988296;28;20323;-66
2021/12/01 11:21:38;;;;;;;1.10;1.10;;;;;;;;;;4980470;28;20230;-66
2021/12/01 11:24:11;;;;;;;1.50;1.40;;;;;;;;;;4981726;28;20693;-66
2021/12/01 11:26:37;;;;;;;1.50;1.40;;;;;;;;;;4984926;28;20348;-66
2021/12/01 11:29:08;;;;;;;1.50;1.40;;;;;;;;;;4985475;28;20234;-65
2021/12/01 11:31:39;;;;;;;1.93;1.40;;;;;;;;;;4993017;28;20240;-65
2021/12/01 11:34:06;;;;;;;1.50;1.40;;;;;;;;;;4985734;28;20737;-65
2021/12/01 11:36:51;;;;;;;1.40;1.30;;;;;;;;;;4990809;28;20324;-65
2021/12/01 11:39:22;;;;;;;1.10;1.10;;;;;;;;;;4991246;28;20262;-66
2021/12/01 11:41:49;;;;;;;1.20;1.20;;;;;;;;;;4965910;28;20233;-67
2021/12/01 11:44:17;;;;;;;1.43;1.23;;;;;;;;;;4985563;28;20339;-66
2021/12/01 11:46:43;;;;;;;1.33;1.23;;;;;;;;;;4983524;28;20827;-65
2021/12/01 11:49:10;;;;;;;1.50;1.40;;;;;;;;;;4963718;28;20312;-65
2021/12/01 11:51:44;;;;;;;1.47;1.37;;;;;;;;;;4978989;28;20250;-65
2021/12/01 11:54:15;;;;;;;1.40;1.30;;;;;;;;;;4986292;28;20950;-66
2021/12/01 11:56:48;;;;;;;2.30;1.53;;;;;;;;;;4979248;28;20244;-66
2021/12/01 11:59:14;;;;;;;1.50;1.40;;;;;;;;;;4992482;28;20240;-66
2021/12/01 12:01:58;;;;;;;1.60;1.50;;;;;;;;;;4987243;28;20218;-65
2021/12/01 12:04:25;;;;;;;1.60;1.50;;;;;;;;;;4989235;28;20244;-65
2021/12/01 12:06:52;;;;;;;1.53;1.40;;;;;;;;;;4986409;28;20724;-65
2021/12/01 12:09:19;;;;;;;1.80;1.70;;;;;;;;;;4987479;28;20233;-65
2021/12/01 12:11:45;;;;;;;1.90;1.80;;;;;;;;;;4980017;28;20225;-65
2021/12/01 12:14:11;;;;;;;2.07;1.90;;;;;;;;;;4978686;28;20566;-64
2021/12/01 12:16:37;;;;;;;2.20;2.00;;;;;;;;;;4989048;28;20229;-66
2021/12/01 12:19:03;;;;;;;2.93;1.97;;;;;;;;;;4982553;28;20317;-66
2021/12/01 12:21:52;;;;;;;4.37;2.33;;;;;;;;;;4964771;28;20279;-66
2021/12/01 12:24:22;;;;;;;2.87;2.33;;;;;;;;;;4985702;28;20248;-65
2021/12/01 12:26:58;;;;;;;3.13;2.20;;;;;;;;;;4985820;28;20369;-65
2021/12/01 12:29:28;;;;;;;3.70;2.20;;;;;;;;;;4991383;28;20237;-65
2021/12/01 12:32:02;;;;;;;2.60;2.30;;;;;;;;;;4987859;28;20236;-65
2021/12/01 12:34:29;;;;;;;3.27;2.10;;;;;;;;;;4965234;28;20239;-65
2021/12/01 12:36:56;;;;;;;3.83;2.47;;;;;;;;;;4986448;28;20240;-66
2021/12/01 12:39:31;;;;;;;2.57;2.30;;;;;;;;;;4985475;28;20237;-65
2021/12/01 12:42:06;;;;;;;5.10;2.43;;;;;;;;;;4993605;28;20228;-64
2021/12/01 12:44:37;;;;;;;4.83;2.10;;;;;;;;;;4994523;28;20237;-65
2021/12/01 12:47:08;;;;;;;5.83;2.30;;;;;;;;;;4985169;28;22861;-65
2021/12/01 12:49:37;;;;;;;4.90;2.80;;;;;;;;;;4997334;28;20264;-65
2021/12/01 12:52:25;;;;;;;4.13;2.27;;;;;;;;;;5004218;28;20244;-66
2021/12/01 12:54:54;;;;;;;4.27;2.13;;;;;;;;;;5000534;28;20254;-66
2021/12/01 12:57:20;;;;;;;6.70;2.37;;;;;;;;;;5007619;28;20658;-65
2021/12/01 12:59:54;;;;;;;7.33;2.43;;;;;;;;;;5007721;28;20236;-66
2021/12/01 13:02:22;;;;;;;4.23;2.30;;;;;;;;;;4985828;28;20237;-64
2021/12/01 13:07:35;;;;;;;5.93;2.50;;;;;;;;;;4999724;28;20228;-64
2021/12/01 13:10:09;;;;;;;6.07;2.13;;;;;;;;;;5001153;28;20826;-64
2021/12/01 13:12:53;;;;;;;4.73;2.30;;;;;;;;;;4997481;28;20233;-66
2021/12/01 13:15:23;;;;;;;5.47;2.43;;;;;;;;;;5007127;28;20324;-65
2021/12/01 13:17:49;;;;;;;3.90;2.40;;;;;;;;;;5003471;28;20438;-66
2021/12/01 13:20:19;;;;;;;5.07;2.40;;;;;;;;;;5002320;28;20240;-65
2021/12/01 13:23:00;;;;;;;4.77;2.57;;;;;;;;;;5005806;28;20883;-65
2021/12/01 13:25:29;;;;;;;2.93;2.30;;;;;;;;;;5006178;28;20764;-65
2021/12/01 13:27:55;;;;;;;5.23;2.50;;;;;;;;;;5012189;28;20275;-65
2021/12/01 13:30:21;;;;;;;3.17;2.07;;;;;;;;;;5002765;28;20301;-65
2021/12/01 13:33:05;;;;;;;4.47;2.30;;;;;;;;;;4997195;28;20236;-66
2021/12/01 13:35:36;;;;;;;4.17;2.17;;;;;;;;;;5010613;28;20680;-67
2021/12/01 13:38:05;;;;;;;3.70;1.90;;;;;;;;;;5007080;28;20228;-65
2021/12/01 13:40:31;;;;;;;4.83;2.10;;;;;;;;;;5004319;28;20236;-65
2021/12/01 13:43:00;;;;;;;3.50;2.40;;;;;;;;;;4982773;28;20710;-66
2021/12/01 13:45:28;;;;;;;4.57;2.30;;;;;;;;;;4960658;28;20584;-66
2021/12/01 13:47:54;;;;;;;5.50;2.40;;;;;;;;;;4985968;28;20296;-65
2021/12/01 13:50:22;;;;;;;3.37;2.13;;;;;;;;;;4985240;28;20839;-67
2021/12/01 13:52:51;;;;;;;6.17;2.40;;;;;;;;;;4991861;28;20237;-66
2021/12/01 13:55:19;;;;;;;4.83;2.37;;;;;;;;;;4985573;28;20225;-66
2021/12/01 13:57:46;;;;;;;3.63;2.07;;;;;;;;;;4987682;28;20229;-66
2021/12/01 14:00:12;;;;;;;3.93;2.10;;;;;;;;;;4988174;28;20232;-66
2021/12/01 14:02:38;;;;;;;4.10;2.10;;;;;;;;;;4967296;28;20232;-65
2021/12/01 14:05:04;;;;;;;5.27;2.20;;;;;;;;;;4991540;28;20324;-66
2021/12/01 14:07:50;;;;;;;6.63;1.90;;;;;;;;;;4992086;28;20774;-66
2021/12/01 14:10:16;;;;;;;4.33;2.20;;;;;;;;;;4976861;28;20237;-66
2021/12/01 14:12:46;;;;;;;4.60;2.07;;;;;;;;;;4985264;28;20234;-65
2021/12/01 14:15:15;;;;;;;4.30;1.90;;;;;;;;;;4979825;28;20234;-66
2021/12/01 14:17:41;;;;;;;5.33;2.20;;;;;;;;;;4987018;28;20234;-66
2021/12/01 14:20:07;;;;;;;3.03;2.00;;;;;;;;;;4987475;28;20237;-65
2021/12/01 14:22:33;;;;;;;8.77;2.30;;;;;;;;;;4987967;28;20237;-66
2021/12/01 14:25:02;;;;;;;5.30;2.10;;;;;;;;;;4988707;28;20243;-65
2021/12/01 14:27:32;;;;;;;5.20;2.50;;;;;;;;;;4979285;28;20261;-65
2021/12/01 14:29:58;;;;;;;5.57;2.50;;;;;;;;;;4988859;28;20324;-64
2021/12/01 14:32:24;;;;;;;5.93;2.47;;;;;;;;;;4983230;28;20233;-64
2021/12/01 14:34:53;;;;;;;4.20;2.20;;;;;;;;;;4982548;28;20783;-66
2021/12/01 14:37:22;;;;;;;3.67;2.17;;;;;;;;;;4976681;28;20229;-66
2021/12/01 14:39:48;;;;;;;5.90;2.40;;;;;;;;;;4985109;28;20258;-66
2021/12/01 14:42:14;;;;;;;8.03;2.63;;;;;;;;;;4990473;28;20316;-65
2021/12/01 14:44:41;;;;;;;5.20;2.70;;;;;;;;;;4983827;28;20253;-65
2021/12/01 14:47:28;;;;;;;5.00;2.90;;;;;;;;;;4982804;28;20249;-61
2021/12/01 14:49:58;;;;;;;5.67;3.03;;;;;;;;;;4979609;28;20245;-65
2021/12/01 14:52:25;;;;;;;3.70;3.00;;;;;;;;;;4984927;28;20241;-67
2021/12/01 14:54:56;;;;;;;6.00;3.20;;;;;;;;;;4964321;28;20738;-66
2021/12/01 14:57:23;;;;;;;5.40;3.27;;;;;;;;;;4990906;28;20233;-65
2021/12/01 14:59:53;;;;;;;6.77;3.33;;;;;;;;;;4985746;28;20901;-66
2021/12/01 15:02:32;;;;;;;5.57;3.27;;;;;;;;;;4972466;28;20241;-65